createdAt,value
2019-05-14T00:01:51.437Z,2.23
2019-05-14T00:04:22.057Z,2.77
2019-05-14T00:06:51.944Z,2.60
2019-05-14T00:09:21.531Z,2.33
2019-05-14T00:11:51.262Z,2.23
2019-05-14T00:14:22.075Z,2.17
2019-05-14T00:16:51.409Z,2.83
2019-05-14T00:19:21.549Z,2.83
2019-05-14T00:21:51.387Z,2.43
2019-05-14T00:24:21.710Z,2.33
2019-05-14T00:26:51.697Z,2.37
2019-05-14T00:29:21.984Z,1.97
2019-05-14T00:31:51.716Z,2.17
2019-05-14T00:34:21.447Z,2.33
2019-05-14T00:36:52.425Z,2.27
2019-05-14T00:39:21.406Z,2.00
2019-05-14T00:41:51.309Z,2.20
2019-05-14T00:44:21.558Z,2.03
2019-05-14T00:46:51.681Z,2.97
2019-05-14T00:49:21.263Z,2.50
2019-05-14T00:51:51.917Z,2.80
2019-05-14T00:54:21.523Z,2.23
2019-05-14T00:56:52.142Z,2.30
2019-05-14T00:59:21.620Z,2.53
2019-05-14T01:01:51.593Z,2.27
2019-05-14T01:04:22.254Z,2.27
2019-05-14T01:06:51.518Z,2.67
2019-05-14T01:09:21.839Z,1.90
2019-05-14T01:11:51.286Z,2.20
2019-05-14T01:14:21.110Z,1.97
2019-05-14T01:16:51.412Z,2.30
2019-05-14T01:19:21.411Z,1.97
2019-05-14T01:21:51.076Z,2.53
2019-05-14T01:24:21.572Z,2.00
2019-05-14T01:26:52.340Z,2.10
2019-05-14T01:29:21.937Z,2.17
2019-05-14T01:31:52.026Z,2.47
2019-05-14T01:34:21.664Z,2.33
2019-05-14T01:36:52.799Z,2.20
2019-05-14T01:39:21.899Z,2.60
2019-05-14T01:41:51.662Z,2.20
2019-05-14T01:44:21.359Z,2.53
2019-05-14T01:46:51.266Z,2.93
2019-05-14T01:49:22.176Z,1.93
2019-05-14T01:51:51.238Z,2.50
2019-05-14T01:54:21.186Z,2.70
2019-05-14T01:56:51.470Z,2.40
2019-05-14T01:59:21.354Z,2.00
2019-05-14T02:01:51.772Z,2.33
2019-05-14T02:04:22.116Z,2.40
2019-05-14T02:06:51.706Z,2.07
2019-05-14T02:09:21.731Z,2.13
2019-05-14T02:11:51.904Z,3.07
2019-05-14T02:14:21.981Z,2.77
2019-05-14T02:16:51.315Z,2.10
2019-05-14T02:19:22.180Z,2.83
2019-05-14T02:21:51.533Z,2.83
2019-05-14T02:24:21.783Z,2.47
2019-05-14T02:26:51.411Z,2.33
2019-05-14T02:29:21.428Z,2.80
2019-05-14T02:31:50.804Z,1.97
2019-05-14T02:34:20.162Z,2.30
2019-05-14T02:36:49.843Z,2.47
2019-05-14T02:39:19.763Z,2.53
2019-05-14T02:41:49.858Z,2.77
2019-05-14T02:44:19.364Z,2.50
2019-05-14T02:46:50.563Z,2.37
2019-05-14T02:49:19.420Z,2.30
2019-05-14T02:51:50.341Z,2.30
2019-05-14T02:54:20.401Z,3.00
2019-05-14T02:56:49.736Z,2.53
2019-05-14T02:59:19.686Z,2.60
2019-05-14T03:01:50.404Z,3.50
2019-05-14T03:04:19.981Z,2.97
2019-05-14T03:06:49.865Z,3.00
2019-05-14T03:09:20.334Z,2.50
2019-05-14T03:11:49.738Z,3.23
2019-05-14T03:14:19.579Z,2.80
2019-05-14T03:16:49.824Z,2.97
2019-05-14T03:19:19.732Z,2.87
2019-05-14T03:21:50.074Z,2.47
2019-05-14T03:24:19.766Z,2.40
2019-05-14T03:26:50.100Z,3.23
2019-05-14T03:29:19.763Z,2.43
2019-05-14T03:31:52.471Z,2.73
2019-05-14T03:34:22.130Z,2.83
2019-05-14T03:36:52.507Z,3.60
2019-05-14T03:39:20.947Z,3.10
2019-05-14T03:41:50.214Z,3.13
2019-05-14T03:44:19.945Z,3.27
2019-05-14T03:46:55.162Z,2.73
2019-05-14T03:49:20.169Z,3.30
2019-05-14T03:51:49.901Z,2.80
2019-05-14T03:54:19.625Z,3.20
2019-05-14T03:56:49.642Z,3.80
2019-05-14T03:59:20.109Z,3.90
2019-05-14T04:01:51.014Z,3.07
2019-05-14T04:04:20.618Z,3.30
2019-05-14T04:06:50.418Z,3.27
2019-05-14T04:09:20.510Z,3.43
2019-05-14T04:11:53.269Z,3.60
2019-05-14T04:14:24.787Z,3.50
2019-05-14T04:17:08.074Z,3.03
2019-05-14T04:19:29.876Z,3.17
2019-05-14T04:22:00.123Z,3.73
2019-05-14T04:24:31.258Z,3.00
2019-05-14T04:27:07.696Z,3.40
2019-05-14T04:29:34.303Z,3.40
2019-05-14T04:32:04.384Z,2.80
2019-05-14T04:34:33.796Z,3.27
2019-05-14T04:37:02.678Z,3.27
2019-05-14T04:39:31.622Z,3.87
2019-05-14T04:42:00.567Z,3.07
2019-05-14T04:44:29.864Z,3.50
2019-05-14T04:47:00.167Z,2.87
2019-05-14T04:49:30.280Z,3.30
2019-05-14T04:51:59.647Z,3.13
2019-05-14T04:54:30.222Z,3.03
2019-05-14T04:57:00.130Z,3.23
2019-05-14T04:59:30.112Z,2.83
2019-05-14T05:02:00.037Z,3.37
2019-05-14T05:04:30.032Z,3.97
2019-05-14T05:06:59.578Z,3.80
2019-05-14T05:09:29.455Z,2.87
2019-05-14T05:11:59.815Z,3.90
2019-05-14T05:14:29.651Z,3.73
2019-05-14T05:16:59.683Z,3.03
2019-05-14T05:19:29.192Z,3.17
2019-05-14T05:21:58.800Z,3.57
2019-05-14T05:24:28.737Z,3.30
2019-05-14T05:26:58.653Z,3.30
2019-05-14T05:29:28.579Z,3.27
2019-05-14T05:31:59.362Z,3.40
2019-05-14T05:34:28.762Z,3.63
2019-05-14T05:36:59.217Z,3.27
2019-05-14T05:39:28.515Z,3.33
2019-05-14T05:41:58.521Z,3.10
2019-05-14T05:44:28.762Z,3.20
2019-05-14T05:46:59.735Z,3.30
2019-05-14T05:49:29.185Z,2.70
2019-05-14T05:51:59.196Z,2.63
2019-05-14T05:54:29.195Z,3.20
2019-05-14T05:56:58.555Z,2.93
2019-05-14T05:59:29.268Z,2.70
2019-05-14T06:01:58.846Z,2.90
2019-05-14T06:04:29.016Z,2.50
2019-05-14T06:06:59.058Z,3.03
2019-05-14T06:09:28.856Z,3.43
2019-05-14T06:11:59.278Z,2.67
2019-05-14T06:14:29.106Z,3.00
2019-05-14T06:16:59.100Z,3.03
2019-05-14T06:19:29.045Z,2.77
2019-05-14T06:21:59.747Z,2.63
2019-05-14T06:24:29.332Z,3.53
2019-05-14T06:26:58.746Z,2.40
2019-05-14T06:29:28.939Z,2.90
2019-05-14T06:31:58.978Z,2.97
2019-05-14T06:34:29.092Z,3.03
2019-05-14T06:36:59.283Z,2.63
2019-05-14T06:39:28.488Z,2.80
2019-05-14T06:41:58.513Z,2.37
2019-05-14T06:44:29.424Z,2.77
2019-05-14T06:46:59.097Z,2.33
2019-05-14T06:49:28.992Z,2.13
2019-05-14T06:51:59.298Z,2.77
2019-05-14T06:54:29.285Z,2.10
2019-05-14T06:56:58.450Z,2.37
2019-05-14T06:59:28.846Z,2.37
2019-05-14T07:01:58.159Z,1.80
2019-05-14T07:04:28.855Z,2.30
2019-05-14T07:06:59.115Z,1.80
2019-05-14T07:09:28.977Z,1.70
2019-05-14T07:11:58.610Z,2.17
2019-05-14T07:14:28.232Z,2.20
2019-05-14T07:16:58.779Z,1.97
2019-05-14T07:19:29.495Z,2.27
2019-05-14T07:21:59.175Z,2.23
2019-05-14T07:24:28.429Z,2.10
2019-05-14T07:26:58.549Z,1.80
2019-05-14T07:29:29.253Z,2.20
2019-05-14T07:31:58.462Z,2.20
2019-05-14T07:34:28.317Z,1.93
2019-05-14T07:36:58.640Z,2.83
2019-05-14T07:39:29.078Z,2.33
2019-05-14T07:41:59.127Z,2.00
2019-05-14T07:44:29.643Z,2.10
2019-05-14T07:46:59.077Z,2.23
2019-05-14T07:49:29.054Z,1.77
2019-05-14T07:51:58.819Z,3.03
2019-05-14T07:54:28.307Z,2.43
2019-05-14T07:56:59.025Z,2.10
2019-05-14T07:59:28.701Z,2.03
2019-05-14T08:01:58.712Z,1.93
2019-05-14T08:04:29.005Z,3.77
2019-05-14T08:06:58.332Z,1.87
2019-05-14T08:09:28.286Z,1.90
2019-05-14T08:11:58.747Z,2.00
2019-05-14T08:14:29.394Z,1.73
2019-05-14T08:16:59.518Z,1.60
2019-05-14T08:19:31.494Z,1.87
2019-05-14T08:21:59.465Z,1.77
2019-05-14T08:24:30.115Z,2.33
2019-05-14T08:26:59.362Z,1.47
2019-05-14T08:29:28.751Z,1.60
2019-05-14T08:31:58.309Z,2.33
2019-05-14T08:34:30.391Z,1.57
2019-05-14T08:36:58.885Z,1.63
2019-05-14T08:39:28.658Z,1.60
2019-05-14T08:42:03.606Z,2.33
2019-05-14T08:44:30.957Z,1.90
2019-05-14T08:47:01.061Z,1.67
2019-05-14T08:49:41.926Z,2.07
2019-05-14T08:52:04.130Z,1.73
2019-05-14T08:54:34.123Z,1.87
2019-05-14T08:57:04.121Z,1.63
2019-05-14T08:59:33.557Z,1.63
2019-05-14T09:02:06.666Z,1.90
2019-05-14T09:04:33.177Z,2.90
2019-05-14T09:07:02.126Z,3.30
2019-05-14T09:09:30.953Z,2.30
2019-05-14T09:12:00.051Z,2.83
2019-05-14T09:14:29.239Z,2.50
2019-05-14T09:16:59.890Z,2.57
2019-05-14T09:19:28.876Z,3.37
2019-05-14T09:21:58.809Z,2.13
2019-05-14T09:24:29.131Z,3.27
2019-05-14T09:26:59.385Z,1.70
2019-05-14T09:29:29.901Z,2.33
2019-05-14T09:31:59.409Z,2.27
2019-05-14T09:34:29.126Z,2.83
2019-05-14T09:36:59.349Z,2.80
2019-05-14T09:39:29.086Z,3.30
2019-05-14T09:41:58.490Z,3.27
2019-05-14T09:44:29.269Z,3.53
2019-05-14T09:46:59.407Z,2.50
2019-05-14T09:49:28.630Z,2.67
2019-05-14T09:51:58.329Z,2.70
2019-05-14T09:54:28.662Z,3.27
2019-05-14T09:56:59.146Z,2.53
2019-05-14T09:59:28.592Z,1.93
2019-05-14T10:01:58.542Z,2.83
2019-05-14T10:04:27.894Z,2.50
2019-05-14T10:06:59.072Z,2.57
2019-05-14T10:09:29.027Z,2.30
2019-05-14T10:11:58.222Z,2.40
2019-05-14T10:14:29.605Z,2.13
2019-05-14T10:16:58.309Z,1.70
2019-05-14T10:19:29.656Z,2.43
2019-05-14T10:21:58.757Z,2.67
2019-05-14T10:24:29.113Z,1.77
2019-05-14T10:26:58.723Z,2.33
2019-05-14T10:29:28.606Z,1.77
2019-05-14T10:31:59.252Z,2.07
2019-05-14T10:34:28.809Z,2.03
2019-05-14T10:36:59.071Z,2.53
2019-05-14T10:39:29.862Z,2.03
2019-05-14T10:41:59.081Z,2.10
2019-05-14T10:44:29.224Z,1.87
2019-05-14T10:46:59.517Z,2.40
2019-05-14T10:49:29.976Z,2.20
2019-05-14T10:51:59.077Z,2.30
2019-05-14T10:54:29.220Z,1.90
2019-05-14T10:56:59.384Z,2.13
2019-05-14T10:59:29.438Z,2.80
2019-05-14T11:01:58.708Z,2.00
2019-05-14T11:04:28.635Z,1.90
2019-05-14T11:06:57.796Z,2.20
2019-05-14T11:09:28.590Z,1.70
2019-05-14T11:11:58.356Z,1.40
2019-05-14T11:14:31.347Z,1.90
2019-05-14T11:16:59.219Z,1.30
2019-05-14T11:19:28.310Z,1.43
2019-05-14T11:21:58.043Z,1.20
2019-05-14T11:24:29.609Z,1.50
2019-05-14T11:26:59.037Z,1.70
2019-05-14T11:29:29.616Z,1.10
2019-05-14T11:31:59.098Z,1.40
2019-05-14T11:34:28.728Z,1.63
2019-05-14T11:36:58.969Z,1.60
2019-05-14T11:39:28.797Z,1.70
2019-05-14T11:41:59.081Z,1.73
2019-05-14T11:44:28.697Z,1.80
2019-05-14T11:47:02.348Z,2.00
2019-05-14T11:49:28.633Z,1.50
2019-05-14T11:52:06.977Z,2.23
2019-05-14T11:54:29.209Z,1.97
2019-05-14T11:56:59.025Z,2.07
2019-05-14T11:59:28.483Z,2.20
2019-05-14T12:01:59.387Z,1.90
2019-05-14T12:04:28.490Z,1.67
2019-05-14T12:06:59.085Z,2.17
2019-05-14T12:09:28.443Z,1.60
2019-05-14T12:11:58.664Z,1.47
2019-05-14T12:14:27.961Z,1.33
2019-05-14T12:16:59.727Z,1.60
2019-05-14T12:19:28.391Z,1.40
2019-05-14T12:22:06.682Z,1.93
2019-05-14T12:24:29.191Z,1.47
2019-05-14T12:26:58.655Z,1.90
2019-05-14T12:29:29.245Z,1.30
2019-05-14T12:31:58.661Z,1.67
2019-05-14T12:34:29.558Z,1.80
2019-05-14T12:36:58.585Z,1.80
2019-05-14T12:39:29.338Z,1.80
2019-05-14T12:41:58.268Z,1.87
2019-05-14T12:44:29.079Z,1.67
2019-05-14T12:46:58.800Z,1.53
2019-05-14T12:49:27.799Z,1.97
2019-05-14T12:51:59.050Z,1.87
2019-05-14T12:54:29.669Z,1.30
2019-05-14T12:56:57.864Z,1.40
2019-05-14T12:59:28.527Z,1.10
2019-05-14T13:01:58.700Z,1.83
2019-05-14T13:04:28.518Z,1.27
2019-05-14T13:06:59.839Z,1.17
2019-05-14T13:09:28.150Z,1.60
2019-05-14T13:11:58.640Z,2.30
2019-05-14T13:14:28.362Z,1.10
2019-05-14T13:16:59.596Z,2.13
2019-05-14T13:19:28.545Z,1.23
2019-05-14T13:22:09.913Z,1.17
2019-05-14T13:24:28.833Z,1.00
2019-05-14T13:26:58.796Z,0.87
2019-05-14T13:29:28.949Z,0.60
2019-05-14T13:31:59.240Z,0.90
2019-05-14T13:34:29.020Z,0.80
2019-05-14T13:36:59.673Z,1.37
2019-05-14T13:39:28.798Z,1.10
2019-05-14T13:41:58.897Z,1.47
2019-05-14T13:44:29.229Z,1.30
2019-05-14T13:46:59.639Z,1.47
2019-05-14T13:49:29.594Z,1.25
2019-05-14T13:51:58.733Z,1.77
2019-05-14T13:54:31.657Z,1.40
2019-05-14T13:56:58.619Z,1.10
2019-05-14T13:59:27.915Z,1.13
2019-05-14T14:01:59.214Z,1.17
2019-05-14T14:04:27.509Z,1.00
2019-05-14T14:06:59.095Z,1.10
2019-05-14T14:09:28.327Z,0.93
2019-05-14T14:11:58.768Z,1.07
2019-05-14T14:14:29.144Z,0.80
2019-05-14T14:16:58.404Z,0.83
2019-05-14T14:19:28.210Z,0.67
2019-05-14T14:21:59.131Z,0.60
2019-05-14T14:24:29.096Z,1.10
2019-05-14T14:26:58.394Z,0.63
2019-05-14T14:29:27.483Z,0.90
2019-05-14T14:31:58.814Z,0.70
2019-05-14T14:34:28.991Z,0.97
2019-05-14T14:36:59.297Z,1.33
2019-05-14T14:39:28.693Z,1.10
2019-05-14T14:41:58.474Z,1.27
2019-05-14T14:44:29.195Z,0.70
2019-05-14T14:46:58.330Z,0.70
2019-05-14T14:49:28.170Z,0.90
2019-05-14T14:51:58.958Z,0.93
2019-05-14T14:54:28.820Z,1.10
2019-05-14T14:56:59.195Z,0.70
2019-05-14T14:59:30.398Z,0.70
2019-05-14T15:01:59.955Z,0.90
2019-05-14T15:04:29.031Z,0.80
2019-05-14T15:06:59.771Z,1.20
2019-05-14T15:09:28.797Z,0.90
2019-05-14T15:11:59.864Z,1.00
2019-05-14T15:14:29.683Z,1.20
2019-05-14T15:16:58.966Z,0.83
2019-05-14T15:19:29.773Z,1.00
2019-05-14T15:21:59.135Z,0.93
2019-05-14T15:24:28.155Z,0.90
2019-05-14T15:27:06.860Z,1.00
2019-05-14T15:29:28.454Z,1.10
2019-05-14T15:31:59.211Z,1.03
2019-05-14T15:34:29.711Z,1.33
2019-05-14T15:36:59.811Z,0.90
2019-05-14T15:39:30.183Z,1.03
2019-05-14T15:42:05.088Z,0.90
2019-05-14T15:44:46.474Z,0.80
2019-05-14T15:47:00.714Z,0.77
2019-05-14T15:49:29.579Z,1.00
2019-05-14T15:51:58.463Z,0.77
2019-05-14T15:54:39.822Z,0.90
2019-05-14T15:56:58.840Z,0.90
2019-05-14T15:59:28.455Z,0.87
2019-05-14T16:01:57.543Z,1.00
2019-05-14T16:04:28.654Z,1.00
2019-05-14T16:06:58.600Z,1.03
2019-05-14T16:09:28.944Z,0.50
2019-05-14T16:11:58.882Z,0.60
2019-05-14T16:14:29.998Z,0.53
2019-05-14T16:16:58.594Z,0.80
2019-05-14T16:19:28.434Z,0.80
2019-05-14T16:21:58.622Z,0.87
2019-05-14T16:24:28.521Z,1.00
2019-05-14T16:27:00.021Z,0.80
2019-05-14T16:29:40.385Z,0.93
2019-05-14T16:31:58.854Z,1.00
2019-05-14T16:34:28.702Z,1.20
2019-05-14T16:36:58.480Z,1.23
2019-05-14T16:39:28.461Z,1.00
2019-05-14T16:41:58.250Z,1.07
2019-05-14T16:44:28.362Z,1.00
2019-05-14T16:46:58.641Z,1.13
2019-05-14T16:49:29.940Z,0.83
2019-05-14T16:51:59.556Z,0.90
2019-05-14T16:54:29.511Z,0.93
2019-05-14T16:56:58.912Z,0.90
2019-05-14T16:59:29.594Z,0.83
2019-05-14T17:01:58.810Z,0.80
2019-05-14T17:04:29.354Z,1.10
2019-05-14T17:06:59.041Z,0.87
2019-05-14T17:09:28.333Z,1.00
2019-05-14T17:11:58.978Z,0.87
2019-05-14T17:14:29.150Z,0.97
2019-05-14T17:16:59.584Z,1.43
2019-05-14T17:19:29.798Z,0.60
2019-05-14T17:21:59.524Z,0.90
2019-05-14T17:24:29.246Z,0.90
2019-05-14T17:26:58.439Z,0.70
2019-05-14T17:29:28.646Z,0.80
2019-05-14T17:31:57.815Z,0.90
2019-05-14T17:34:29.086Z,0.60
2019-05-14T17:36:59.406Z,0.80
2019-05-14T17:39:28.088Z,0.90
2019-05-14T17:41:58.906Z,1.20
2019-05-14T17:44:27.575Z,0.73
2019-05-14T17:46:58.542Z,1.23
2019-05-14T17:49:28.366Z,0.90
2019-05-14T17:51:58.198Z,1.07
2019-05-14T17:54:28.463Z,1.00
2019-05-14T17:56:59.255Z,0.87
2019-05-14T17:59:29.827Z,0.70
2019-05-14T18:01:58.995Z,0.90
2019-05-14T18:04:28.326Z,1.63
2019-05-14T18:06:59.168Z,1.00
2019-05-14T18:09:29.368Z,0.60
2019-05-14T18:11:58.745Z,1.00
2019-05-14T18:14:28.404Z,1.10
2019-05-14T18:16:58.508Z,1.20
2019-05-14T18:19:29.003Z,1.10
2019-05-14T18:21:59.379Z,1.20
2019-05-14T18:24:28.792Z,1.27
2019-05-14T18:26:57.791Z,1.30
2019-05-14T18:29:29.527Z,0.90
2019-05-14T18:32:00.965Z,1.13
2019-05-14T18:34:28.921Z,1.30
2019-05-14T18:37:00.774Z,0.97
2019-05-14T18:39:28.670Z,1.10
2019-05-14T18:42:00.625Z,0.93
2019-05-14T18:44:28.543Z,1.20
2019-05-14T18:46:59.386Z,1.37
2019-05-14T18:49:28.829Z,1.30
2019-05-14T18:51:59.314Z,1.13
2019-05-14T18:54:29.396Z,1.83
2019-05-14T18:56:59.650Z,1.20
2019-05-14T18:59:30.902Z,1.13
2019-05-14T19:01:59.834Z,0.97
2019-05-14T19:04:29.034Z,1.00
2019-05-14T19:06:59.058Z,0.93
2019-05-14T19:09:29.214Z,0.77
2019-05-14T19:11:58.786Z,1.10
2019-05-14T19:14:29.238Z,0.73
2019-05-14T19:16:58.637Z,1.03
2019-05-14T19:19:29.385Z,0.70
2019-05-14T19:21:58.622Z,1.10
2019-05-14T19:24:28.695Z,0.90
2019-05-14T19:26:59.564Z,1.57
2019-05-14T19:29:28.553Z,0.90
2019-05-14T19:31:57.478Z,0.90
2019-05-14T19:34:28.701Z,0.63
2019-05-14T19:36:57.352Z,0.80
2019-05-14T19:39:28.234Z,0.83
2019-05-14T19:41:56.908Z,1.20
2019-05-14T19:44:25.808Z,1.00
2019-05-14T19:46:55.081Z,1.10
2019-05-14T19:49:23.937Z,1.10
2019-05-14T19:51:53.178Z,1.30
2019-05-14T19:54:22.125Z,1.00
2019-05-14T19:56:56.878Z,1.60
2019-05-14T19:59:21.641Z,1.53
2019-05-14T20:01:50.630Z,1.20
2019-05-14T20:04:19.552Z,1.33
2019-05-14T20:06:49.553Z,0.80
2019-05-14T20:09:18.799Z,1.10
2019-05-14T20:11:49.050Z,0.73
2019-05-14T20:14:18.185Z,1.67
2019-05-14T20:16:49.085Z,1.13
2019-05-14T20:19:19.300Z,1.20
2019-05-14T20:21:48.410Z,1.17
2019-05-14T20:24:18.871Z,0.90
2019-05-14T20:26:48.781Z,1.20
2019-05-14T20:29:19.472Z,1.17
2019-05-14T20:31:48.570Z,1.00
2019-05-14T20:34:19.107Z,1.13
2019-05-14T20:36:48.364Z,1.03
2019-05-14T20:39:18.255Z,1.47
2019-05-14T20:41:49.040Z,1.00
2019-05-14T20:44:18.998Z,1.30
2019-05-14T20:46:49.017Z,1.17
2019-05-14T20:49:19.040Z,1.30
2019-05-14T20:51:49.399Z,1.20
2019-05-14T20:54:18.540Z,1.27
2019-05-14T20:56:49.245Z,0.90
2019-05-14T20:59:19.164Z,0.93
2019-05-14T21:01:48.227Z,0.87
2019-05-14T21:04:18.906Z,1.00
2019-05-14T21:06:48.704Z,1.33
2019-05-14T21:09:19.139Z,0.87
2019-05-14T21:11:49.276Z,0.90
2019-05-14T21:14:18.577Z,0.93
2019-05-14T21:16:48.836Z,1.00
2019-05-14T21:19:18.063Z,1.23
2019-05-14T21:21:49.000Z,1.17
2019-05-14T21:24:18.125Z,1.13
2019-05-14T21:26:48.426Z,1.23
2019-05-14T21:29:17.371Z,1.23
2019-05-14T21:31:46.262Z,1.60
2019-05-14T21:34:15.967Z,1.33
2019-05-14T21:36:45.870Z,1.07
2019-05-14T21:39:14.894Z,1.20
2019-05-14T21:41:44.034Z,1.43
2019-05-14T21:44:13.350Z,1.67
2019-05-14T21:46:42.334Z,1.30
2019-05-14T21:49:11.499Z,1.67
2019-05-14T21:51:40.502Z,1.23
2019-05-14T21:54:09.621Z,1.87
2019-05-14T21:56:38.922Z,1.70
2019-05-14T21:59:09.456Z,1.60
2019-05-14T22:01:39.676Z,2.13
2019-05-14T22:04:11.551Z,1.70
2019-05-14T22:06:41.235Z,1.90
2019-05-14T22:09:11.127Z,1.90
2019-05-14T22:11:40.160Z,1.73
2019-05-14T22:14:09.682Z,1.90
2019-05-14T22:16:38.740Z,1.80
2019-05-14T22:19:08.495Z,2.10
2019-05-14T22:21:38.636Z,2.00
2019-05-14T22:24:08.342Z,2.27
2019-05-14T22:26:38.793Z,1.90
2019-05-14T22:29:08.436Z,2.03
2019-05-14T22:31:38.757Z,2.07
2019-05-14T22:34:08.924Z,1.80
2019-05-14T22:36:39.631Z,1.93
2019-05-14T22:39:08.985Z,1.90
2019-05-14T22:41:38.262Z,2.23
2019-05-14T22:44:09.519Z,2.20
2019-05-14T22:46:40.284Z,2.30
2019-05-14T22:49:09.256Z,2.37
2019-05-14T22:51:38.849Z,1.90
2019-05-14T22:54:08.687Z,2.23
2019-05-14T22:56:38.918Z,2.20
2019-05-14T22:59:08.056Z,2.23
2019-05-14T23:01:38.734Z,2.07
2019-05-14T23:04:09.067Z,2.20
2019-05-14T23:06:38.497Z,2.77
2019-05-14T23:09:08.993Z,2.13
2019-05-14T23:11:38.632Z,2.10
2019-05-14T23:14:07.785Z,2.63
2019-05-14T23:16:41.187Z,2.20
2019-05-14T23:19:08.302Z,2.37
2019-05-14T23:21:39.030Z,2.60
2019-05-14T23:24:09.117Z,2.00
2019-05-14T23:26:38.422Z,2.07
2019-05-14T23:29:07.405Z,2.10
2019-05-14T23:31:38.521Z,2.07
2019-05-14T23:34:06.892Z,2.73
2019-05-14T23:36:35.962Z,2.80
2019-05-14T23:39:08.807Z,2.10
2019-05-14T23:41:38.380Z,2.30
2019-05-14T23:44:08.356Z,2.20
2019-05-14T23:46:37.460Z,2.70
2019-05-14T23:49:08.743Z,2.07
2019-05-14T23:51:38.541Z,2.73
2019-05-14T23:54:08.831Z,2.97
2019-05-14T23:56:38.548Z,2.40
2019-05-14T23:59:09.334Z,2.40
